createdAt,value
2022-11-03T00:02:09.107Z,98462.66
2022-11-03T00:04:36.711Z,98472.63
2022-11-03T00:07:04.311Z,98470.94
2022-11-03T00:09:31.939Z,98469.22
2022-11-03T00:11:59.561Z,98465.69
2022-11-03T00:14:27.081Z,98461.31
2022-11-03T00:16:54.938Z,98455.72
2022-11-03T00:19:22.479Z,98452.84
2022-11-03T00:21:50.310Z,98454.69
2022-11-03T00:24:17.802Z,98453.84
2022-11-03T00:26:45.317Z,98449.75
2022-11-03T00:29:15.424Z,98445.81
2022-11-03T00:31:44.984Z,98439.25
2022-11-03T00:34:13.082Z,98439.19
2022-11-03T00:36:42.816Z,98438.09
2022-11-03T00:39:11.047Z,98436.63
2022-11-03T00:41:38.943Z,98432.50
2022-11-03T00:44:06.542Z,98429.41
2022-11-03T00:46:37.161Z,98429.56
2022-11-03T00:49:05.830Z,98418.16
2022-11-03T00:51:35.189Z,98416.34
2022-11-03T00:54:04.889Z,98416.97
2022-11-03T00:56:35.162Z,98417.47
2022-11-03T00:59:03.891Z,98417.56
2022-11-03T01:01:42.216Z,98402.94
2022-11-03T01:04:31.443Z,98395.81
2022-11-03T01:07:00.824Z,98397.06
2022-11-03T01:09:36.793Z,98395.25
2022-11-03T01:12:16.251Z,98396.88
2022-11-03T01:14:49.258Z,98400.19
2022-11-03T01:17:20.351Z,98403.66
2022-11-03T01:19:48.722Z,98403.44
2022-11-03T01:22:17.099Z,98406.09
2022-11-03T01:24:45.162Z,98405.91
2022-11-03T01:27:16.002Z,98398.34
2022-11-03T01:29:44.011Z,98406.03
2022-11-03T01:32:12.111Z,98402.13
2022-11-03T01:34:40.038Z,98399.19
2022-11-03T01:37:07.983Z,98400.38
2022-11-03T01:39:35.724Z,98394.28
2022-11-03T01:42:03.743Z,98393.16
2022-11-03T01:44:46.850Z,98397.38
2022-11-03T01:47:22.251Z,98389.44
2022-11-03T01:49:49.708Z,98398.75
2022-11-03T01:52:21.410Z,98392.28
2022-11-03T01:54:56.453Z,98390.50
2022-11-03T01:57:29.287Z,98385.97
2022-11-03T01:59:59.473Z,98386.22
2022-11-03T02:02:28.246Z,98381.75
2022-11-03T02:05:00.870Z,98375.25
2022-11-03T02:07:40.768Z,98374.25
2022-11-03T02:10:09.526Z,98374.50
2022-11-03T02:12:37.892Z,98371.28
2022-11-03T02:15:09.581Z,98360.75
2022-11-03T02:17:39.976Z,98369.72
2022-11-03T02:20:16.318Z,98357.50
2022-11-03T02:22:46.823Z,98354.41
2022-11-03T02:25:40.571Z,98345.00
2022-11-03T02:28:08.960Z,98346.84
2022-11-03T02:30:46.192Z,98348.03
2022-11-03T02:33:43.642Z,98346.56
2022-11-03T02:36:26.968Z,98341.66
2022-11-03T02:39:56.100Z,98339.81
2022-11-03T02:42:25.381Z,98339.81
2022-11-03T02:44:57.472Z,98337.00
2022-11-03T02:47:28.551Z,98328.22
2022-11-03T02:52:41.094Z,98324.81
2022-11-03T02:55:08.892Z,98308.09
2022-11-03T02:57:45.747Z,98300.59
2022-11-03T03:00:15.991Z,98300.91
2022-11-03T03:02:54.822Z,98298.06
2022-11-03T03:05:27.408Z,98296.88
2022-11-03T03:08:01.902Z,98295.22
2022-11-03T03:10:44.161Z,98284.44
2022-11-03T03:13:15.751Z,98279.56
2022-11-03T03:15:50.601Z,98274.06
2022-11-03T03:18:29.019Z,98279.53
2022-11-03T03:21:11.551Z,98265.34
2022-11-03T03:23:49.814Z,98266.06
2022-11-03T03:26:41.767Z,98261.50
2022-11-03T03:29:15.704Z,98260.28
2022-11-03T03:31:51.541Z,98254.59
2022-11-03T03:34:34.482Z,98252.13
2022-11-03T03:37:05.313Z,98249.53
2022-11-03T03:39:38.497Z,98244.09
2022-11-03T03:42:10.942Z,98238.38
2022-11-03T03:44:40.820Z,98232.63
2022-11-03T03:47:18.636Z,98240.31
2022-11-03T03:49:46.347Z,98237.03
2022-11-03T03:52:15.161Z,98231.78
2022-11-03T03:54:42.770Z,98229.59
2022-11-03T03:57:18.534Z,98232.00
2022-11-03T03:59:46.731Z,98211.25
2022-11-03T04:02:15.005Z,98212.72
2022-11-03T04:04:42.852Z,98198.66
2022-11-03T04:07:28.998Z,98196.56
2022-11-03T04:09:56.581Z,98202.88
2022-11-03T04:12:42.883Z,98201.06
2022-11-03T04:15:32.952Z,98187.69
2022-11-03T04:18:19.203Z,98184.66
2022-11-03T04:21:05.421Z,98183.09
2022-11-03T04:23:33.052Z,98186.19
2022-11-03T04:26:01.190Z,98188.44
2022-11-03T04:28:29.357Z,98183.59
2022-11-03T04:30:59.208Z,98180.16
2022-11-03T04:33:29.113Z,98179.19
2022-11-03T04:35:59.646Z,98168.16
2022-11-03T04:38:29.461Z,98168.47
2022-11-03T04:40:58.557Z,98175.22
2022-11-03T04:43:35.011Z,98175.72
2022-11-03T04:46:02.587Z,98175.19
2022-11-03T04:48:30.237Z,98175.19
2022-11-03T04:51:10.445Z,98167.84
2022-11-03T04:53:38.027Z,98166.97
2022-11-03T04:56:15.463Z,98159.38
2022-11-03T04:58:43.050Z,98152.00
2022-11-03T05:01:13.364Z,98160.56
2022-11-03T05:03:43.478Z,98152.47
2022-11-03T05:06:17.144Z,98152.00
2022-11-03T05:08:48.489Z,98150.78
2022-11-03T05:11:19.049Z,98147.75
2022-11-03T05:13:47.587Z,98144.31
2022-11-03T05:16:15.078Z,98143.50
2022-11-03T05:18:46.659Z,98142.72
2022-11-03T05:21:17.950Z,98141.00
2022-11-03T05:23:56.156Z,98142.38
2022-11-03T05:26:28.675Z,98139.09
2022-11-03T05:29:00.725Z,98137.31
2022-11-03T05:31:30.484Z,98134.88
2022-11-03T05:34:03.157Z,98120.38
2022-11-03T05:36:33.360Z,98130.38
2022-11-03T05:39:24.237Z,98139.56
2022-11-03T05:41:51.849Z,98134.19
2022-11-03T05:44:26.284Z,98140.94
2022-11-03T05:46:53.835Z,98142.75
2022-11-03T05:49:21.444Z,98143.34
2022-11-03T05:51:49.664Z,98134.41
2022-11-03T05:54:25.868Z,98136.66
2022-11-03T05:56:55.228Z,98130.13
2022-11-03T05:59:29.827Z,98117.50
2022-11-03T06:02:01.342Z,98125.72
2022-11-03T06:04:34.410Z,98124.31
2022-11-03T06:07:25.007Z,98116.16
2022-11-03T06:09:53.955Z,98116.56
2022-11-03T06:12:24.084Z,98114.16
2022-11-03T06:14:52.388Z,98106.59
2022-11-03T06:17:26.294Z,98106.03
2022-11-03T06:19:59.535Z,98111.78
2022-11-03T06:22:31.526Z,98113.19
2022-11-03T06:25:16.938Z,98120.75
2022-11-03T06:27:44.577Z,98109.72
2022-11-03T06:30:21.434Z,98113.78
2022-11-03T06:32:49.125Z,98109.47
2022-11-03T06:35:16.969Z,98107.56
2022-11-03T06:37:45.234Z,98092.78
2022-11-03T06:40:15.491Z,98110.22
2022-11-03T06:42:43.280Z,98106.34
2022-11-03T06:45:20.996Z,98098.97
2022-11-03T06:47:49.918Z,98095.25
2022-11-03T06:50:23.313Z,98107.44
2022-11-03T06:52:51.744Z,98096.75
2022-11-03T06:55:26.579Z,98100.34
2022-11-03T06:58:04.963Z,98105.16
2022-11-03T07:00:35.094Z,98094.63
2022-11-03T07:03:03.889Z,98098.81
2022-11-03T07:05:33.022Z,98102.97
2022-11-03T07:08:04.381Z,98092.53
2022-11-03T07:10:34.039Z,98099.13
2022-11-03T07:13:10.801Z,98083.47
2022-11-03T07:15:39.925Z,98080.31
2022-11-03T07:18:21.608Z,98074.53
2022-11-03T07:20:49.636Z,98076.94
2022-11-03T07:23:23.199Z,98077.22
2022-11-03T07:25:58.064Z,98080.47
2022-11-03T07:28:31.387Z,98074.47
2022-11-03T07:31:01.688Z,98077.72
2022-11-03T07:33:32.188Z,98077.63
2022-11-03T07:36:16.793Z,98074.84
2022-11-03T07:38:48.157Z,98070.06
2022-11-03T07:41:19.963Z,98065.47
2022-11-03T07:43:56.269Z,98061.66
2022-11-03T07:46:25.073Z,98055.09
2022-11-03T07:48:58.624Z,98046.00
2022-11-03T07:51:32.628Z,98046.66
2022-11-03T07:54:08.588Z,98039.31
2022-11-03T07:56:43.067Z,98043.34
2022-11-03T07:59:11.687Z,98041.03
2022-11-03T08:01:57.147Z,98032.94
2022-11-03T08:04:31.374Z,98018.75
2022-11-03T08:06:58.998Z,98025.97
2022-11-03T08:09:27.343Z,98015.50
2022-11-03T08:11:54.989Z,98010.50
2022-11-03T08:14:23.808Z,98008.88
2022-11-03T08:16:51.304Z,98012.34
2022-11-03T08:19:18.880Z,98002.72
2022-11-03T08:21:46.255Z,98013.41
2022-11-03T08:24:13.830Z,97999.94
2022-11-03T08:26:41.269Z,97998.91
2022-11-03T08:29:08.864Z,97985.31
2022-11-03T08:31:36.324Z,97988.91
2022-11-03T08:34:03.933Z,97989.59
2022-11-03T08:36:31.408Z,97977.97
2022-11-03T08:38:58.857Z,97975.91
2022-11-03T08:41:26.381Z,97980.09
2022-11-03T08:43:53.858Z,97976.38
2022-11-03T08:46:21.637Z,97965.09
2022-11-03T08:48:49.586Z,97965.44
2022-11-03T08:51:17.126Z,97959.72
2022-11-03T08:53:44.908Z,97970.78
2022-11-03T08:56:15.136Z,97969.72
2022-11-03T08:58:44.318Z,97968.94
2022-11-03T09:01:12.012Z,97964.63
2022-11-03T09:03:40.537Z,97956.75
2022-11-03T09:06:08.599Z,97954.88
2022-11-03T09:11:23.657Z,97945.69
2022-11-03T09:13:51.185Z,97939.53
2022-11-03T09:16:18.631Z,97939.19
2022-11-03T09:18:46.149Z,97943.94
2022-11-03T09:21:15.100Z,97938.25
2022-11-03T09:23:42.876Z,97947.41
2022-11-03T09:26:10.320Z,97936.75
2022-11-03T09:28:37.834Z,97934.06
2022-11-03T09:31:05.398Z,97924.03
2022-11-03T09:33:33.084Z,97930.78
2022-11-03T09:36:02.063Z,97918.63
2022-11-03T09:38:29.619Z,97915.25
2022-11-03T09:40:57.177Z,97910.19
2022-11-03T09:43:24.617Z,97907.22
2022-11-03T09:45:53.598Z,97904.94
2022-11-03T09:48:21.309Z,97899.69
2022-11-03T09:50:53.518Z,97901.22
2022-11-03T09:53:22.053Z,97891.31
2022-11-03T09:55:49.638Z,97875.66
2022-11-03T09:58:18.178Z,97891.75
2022-11-03T10:00:46.440Z,97888.16
2022-11-03T10:03:18.134Z,97879.38
2022-11-03T10:05:46.211Z,97881.75
2022-11-03T10:08:34.336Z,97881.03
2022-11-03T10:11:02.514Z,97876.81
2022-11-03T10:13:40.218Z,97870.78
2022-11-03T10:16:12.027Z,97862.53
2022-11-03T10:18:39.626Z,97861.00
2022-11-03T10:21:19.363Z,97855.91
2022-11-03T10:23:47.370Z,97852.00
2022-11-03T10:26:18.791Z,97856.22
2022-11-03T10:29:03.812Z,97847.78
2022-11-03T10:31:36.197Z,97851.09
2022-11-03T10:34:04.700Z,97846.31
2022-11-03T10:36:33.944Z,97833.06
2022-11-03T10:39:26.079Z,97838.28
2022-11-03T10:41:58.930Z,97828.16
2022-11-03T10:44:28.843Z,97825.31
2022-11-03T10:47:01.455Z,97825.13
2022-11-03T10:49:36.554Z,97813.34
2022-11-03T10:52:24.970Z,97810.19
2022-11-03T10:54:55.064Z,97808.00
2022-11-03T10:57:23.468Z,97806.47
2022-11-03T10:59:53.873Z,97800.06
2022-11-03T11:02:28.923Z,97784.66
2022-11-03T11:05:02.059Z,97771.69
2022-11-03T11:07:43.490Z,97773.88
2022-11-03T11:10:18.366Z,97769.91
2022-11-03T11:13:21.775Z,97765.34
2022-11-03T11:15:54.818Z,97759.94
2022-11-03T11:18:31.144Z,97751.94
2022-11-03T11:21:19.821Z,97746.09
2022-11-03T11:23:48.888Z,97743.09
2022-11-03T11:26:36.704Z,97730.88
2022-11-03T11:29:10.407Z,97724.06
2022-11-03T11:31:38.738Z,97723.91
2022-11-03T11:34:18.573Z,97713.75
2022-11-03T11:36:55.047Z,97718.78
2022-11-03T11:39:28.777Z,97703.50
2022-11-03T11:42:15.809Z,97700.31
2022-11-03T11:44:43.272Z,97691.56
2022-11-03T11:47:32.166Z,97691.94
2022-11-03T11:50:05.781Z,97693.50
2022-11-03T11:52:54.032Z,97694.06
2022-11-03T11:59:27.972Z,97672.25
2022-11-03T12:01:57.202Z,97671.34
2022-11-03T12:04:31.403Z,97669.28
2022-11-03T12:06:59.577Z,97671.41
2022-11-03T12:09:28.405Z,97659.78
2022-11-03T12:12:00.637Z,97657.06
2022-11-03T12:14:38.468Z,97664.50
2022-11-03T12:17:14.977Z,97657.59
2022-11-03T12:19:44.487Z,97652.25
2022-11-03T12:22:24.807Z,97647.97
2022-11-03T12:25:02.049Z,97645.16
2022-11-03T12:27:29.497Z,97644.25
2022-11-03T12:30:02.421Z,97649.19
2022-11-03T12:32:34.984Z,97655.03
2022-11-03T12:35:04.972Z,97643.53
2022-11-03T12:37:32.544Z,97642.03
2022-11-03T12:40:00.045Z,97627.59
2022-11-03T12:42:28.258Z,97630.13
2022-11-03T12:44:56.140Z,97625.22
2022-11-03T12:47:23.918Z,97618.09
2022-11-03T12:49:51.379Z,97618.94
2022-11-03T12:52:18.992Z,97613.97
2022-11-03T12:54:46.424Z,97607.09
2022-11-03T12:57:14.107Z,97606.69
2022-11-03T12:59:41.587Z,97597.06
2022-11-03T13:02:10.824Z,97603.22
2022-11-03T13:04:39.083Z,97597.94
2022-11-03T13:07:06.659Z,97595.25
2022-11-03T13:09:36.087Z,97604.34
2022-11-03T13:12:22.298Z,97595.38
2022-11-03T13:14:49.756Z,97584.88
2022-11-03T13:17:17.279Z,97579.22
2022-11-03T13:19:44.813Z,97585.59
2022-11-03T13:22:12.287Z,97580.19
2022-11-03T13:24:39.929Z,97575.00
2022-11-03T13:27:07.386Z,97571.84
2022-11-03T13:29:35.921Z,97566.19
2022-11-03T13:32:04.413Z,97557.06
2022-11-03T13:34:32.080Z,97555.91
2022-11-03T13:36:59.731Z,97545.28
2022-11-03T13:39:27.297Z,97544.81
2022-11-03T13:41:54.790Z,97539.09
2022-11-03T13:44:22.269Z,97533.31
2022-11-03T13:46:49.683Z,97516.72
2022-11-03T13:52:05.220Z,97500.78
2022-11-03T14:00:14.026Z,97487.91
2022-11-03T14:05:29.210Z,97470.38
2022-11-03T14:07:56.782Z,97466.00
2022-11-03T14:10:24.316Z,97464.59
2022-11-03T14:12:51.698Z,97468.56
2022-11-03T14:15:19.349Z,97462.75
2022-11-03T14:17:46.809Z,97469.03
2022-11-03T14:20:14.458Z,97464.19
2022-11-03T14:22:41.999Z,97459.44
2022-11-03T14:25:10.208Z,97442.63
2022-11-03T14:27:37.770Z,97451.25
2022-11-03T14:30:06.166Z,97444.28
2022-11-03T14:32:33.666Z,97440.97
2022-11-03T14:35:01.174Z,97435.47
2022-11-03T14:37:28.903Z,97436.00
2022-11-03T14:39:56.467Z,97447.16
2022-11-03T14:42:24.017Z,97442.78
2022-11-03T14:47:25.673Z,97441.53
2022-11-03T14:49:53.377Z,97425.53
2022-11-03T14:52:20.858Z,97429.50
2022-11-03T14:54:48.509Z,97422.88
2022-11-03T14:57:15.971Z,97418.94
2022-11-03T14:59:43.909Z,97420.56
2022-11-03T15:02:13.813Z,97407.13
2022-11-03T15:04:42.155Z,97407.81
2022-11-03T15:07:09.659Z,97391.16
2022-11-03T15:09:37.117Z,97389.72
2022-11-03T15:12:04.789Z,97379.75
2022-11-03T15:14:32.224Z,97375.53
2022-11-03T15:16:59.644Z,97352.88
2022-11-03T15:19:27.055Z,97349.38
2022-11-03T15:21:54.524Z,97335.84
2022-11-03T15:27:09.476Z,97328.81
2022-11-03T15:29:37.696Z,97326.78
2022-11-03T15:32:05.526Z,97326.53
2022-11-03T15:34:32.966Z,97330.72
2022-11-03T15:37:00.383Z,97325.22
2022-11-03T15:39:29.935Z,97325.13
2022-11-03T15:41:57.511Z,97322.06
2022-11-03T15:44:25.008Z,97317.69
2022-11-03T15:46:52.557Z,97315.59
2022-11-03T15:49:20.126Z,97296.81
2022-11-03T15:51:47.659Z,97308.03
2022-11-03T15:54:15.118Z,97302.28
2022-11-03T15:56:42.504Z,97287.66
2022-11-03T15:59:09.924Z,97280.91
2022-11-03T16:01:37.486Z,97280.63
2022-11-03T16:04:05.064Z,97270.97
2022-11-03T16:09:20.564Z,97275.91
2022-11-03T16:11:47.967Z,97250.94
2022-11-03T16:14:15.529Z,97255.25
2022-11-03T16:16:42.989Z,97255.66
2022-11-03T16:19:10.513Z,97244.19
2022-11-03T16:21:38.023Z,97243.91
2022-11-03T16:24:05.783Z,97246.53
2022-11-03T16:26:33.578Z,97238.28
2022-11-03T16:29:01.149Z,97229.00
2022-11-03T16:31:28.817Z,97223.91
2022-11-03T16:33:56.309Z,97223.34
2022-11-03T16:36:23.817Z,97226.56
2022-11-03T16:38:51.308Z,97226.47
2022-11-03T16:41:18.856Z,97217.50
2022-11-03T16:43:47.882Z,97213.09
2022-11-03T16:46:15.599Z,97203.97
2022-11-03T16:48:43.108Z,97197.28
2022-11-03T16:51:10.698Z,97196.44
2022-11-03T16:53:38.137Z,97184.69
2022-11-03T16:56:05.826Z,97165.53
2022-11-03T16:58:33.258Z,97183.22
2022-11-03T17:01:00.844Z,97174.97
2022-11-03T17:03:28.378Z,97171.88
2022-11-03T17:05:55.995Z,97161.22
2022-11-03T17:08:51.206Z,97164.72
2022-11-03T17:11:11.287Z,97146.09
2022-11-03T17:13:38.770Z,97151.50
2022-11-03T17:16:06.294Z,97143.50
2022-11-03T17:18:33.760Z,97132.25
2022-11-03T17:21:01.387Z,97127.56
2022-11-03T17:23:28.778Z,97130.59
2022-11-03T17:25:59.928Z,97114.84
2022-11-03T17:28:27.639Z,97106.56
2022-11-03T17:30:55.099Z,97109.88
2022-11-03T17:33:22.656Z,97090.19
2022-11-03T17:35:50.132Z,97084.38
2022-11-03T17:38:18.716Z,97082.78
2022-11-03T17:40:47.916Z,97085.22
2022-11-03T17:43:34.662Z,97089.50
2022-11-03T17:46:02.097Z,97080.50
2022-11-03T17:48:29.478Z,97082.66
2022-11-03T17:50:57.216Z,97082.94
2022-11-03T17:53:28.493Z,97074.66
2022-11-03T17:56:28.036Z,97070.09
2022-11-03T17:58:47.130Z,97067.22
2022-11-03T18:01:25.080Z,97074.41
2022-11-03T18:03:53.399Z,97068.75
2022-11-03T18:06:21.554Z,97065.53
2022-11-03T18:08:49.713Z,97068.72
2022-11-03T18:11:47.318Z,97065.47
2022-11-03T18:14:16.014Z,97063.88
2022-11-03T18:16:43.579Z,97061.94
2022-11-03T18:19:13.070Z,97053.94
2022-11-03T18:21:41.219Z,97054.75
2022-11-03T18:24:19.998Z,97047.50
2022-11-03T18:26:48.540Z,97052.59
2022-11-03T18:29:16.088Z,97049.38
2022-11-03T18:31:50.816Z,97036.03
2022-11-03T18:34:24.027Z,97029.94
2022-11-03T18:36:52.960Z,97024.38
2022-11-03T18:39:30.049Z,97034.19
2022-11-03T18:41:57.622Z,97021.13
2022-11-03T18:44:30.277Z,97025.38
2022-11-03T18:46:58.685Z,97015.72
2022-11-03T18:49:27.565Z,97011.38
2022-11-03T18:52:03.037Z,96993.44
2022-11-03T18:54:34.049Z,96993.38
2022-11-03T18:57:02.958Z,96985.06
2022-11-03T18:59:37.672Z,96979.09
2022-11-03T19:02:19.970Z,96982.75
2022-11-03T19:04:48.259Z,96980.38
2022-11-03T19:07:22.196Z,96973.25
2022-11-03T19:09:50.233Z,96961.84
2022-11-03T19:12:18.478Z,96968.59
2022-11-03T19:14:48.257Z,96965.91
2022-11-03T19:17:23.328Z,96964.38
2022-11-03T19:19:53.184Z,96957.69
2022-11-03T19:22:22.260Z,96949.19
2022-11-03T19:24:49.777Z,96945.72
2022-11-03T19:27:21.710Z,96942.56
2022-11-03T19:29:49.447Z,96932.19
2022-11-03T19:32:22.699Z,96935.34
2022-11-03T19:35:01.067Z,96936.72
2022-11-03T19:37:35.399Z,96928.47
2022-11-03T19:40:09.155Z,96924.19
2022-11-03T19:42:37.228Z,96925.03
2022-11-03T19:45:07.589Z,96925.09
2022-11-03T19:48:23.796Z,96929.31
2022-11-03T19:50:43.763Z,96934.66
2022-11-03T19:53:16.656Z,96927.69
2022-11-03T19:55:44.308Z,96931.88
2022-11-03T19:58:18.639Z,96930.50
2022-11-03T20:00:47.380Z,96925.38
2022-11-03T20:03:15.357Z,96920.34
2022-11-03T20:05:49.348Z,96916.31
2022-11-03T20:08:21.285Z,96911.53
2022-11-03T20:10:48.979Z,96916.81
2022-11-03T20:13:20.020Z,96901.63
2022-11-03T20:15:47.983Z,96908.00
2022-11-03T20:18:15.945Z,96892.59
2022-11-03T20:20:45.567Z,96891.44
2022-11-03T20:23:22.746Z,96894.91
2022-11-03T20:25:50.458Z,96894.06
2022-11-03T20:28:29.570Z,96885.78
2022-11-03T20:30:57.660Z,96890.88
2022-11-03T20:33:25.706Z,96891.91
2022-11-03T20:35:54.650Z,96885.25
2022-11-03T20:38:25.162Z,96882.09
2022-11-03T20:41:00.428Z,96882.53
2022-11-03T20:43:32.707Z,96882.00
2022-11-03T20:46:00.797Z,96870.19
2022-11-03T20:48:28.288Z,96870.94
2022-11-03T20:50:55.966Z,96870.69
2022-11-03T20:53:24.836Z,96876.84
2022-11-03T20:55:52.779Z,96879.72
2022-11-03T20:58:20.385Z,96874.06
2022-11-03T21:00:49.071Z,96868.75
2022-11-03T21:03:37.365Z,96865.81
2022-11-03T21:06:04.735Z,96857.28
2022-11-03T21:08:32.189Z,96859.97
2022-11-03T21:11:19.627Z,96852.41
2022-11-03T21:13:47.136Z,96856.88
2022-11-03T21:16:33.557Z,96849.81
2022-11-03T21:19:19.616Z,96853.84
2022-11-03T21:21:47.177Z,96833.63
2022-11-03T21:24:14.694Z,96825.28
2022-11-03T21:26:42.437Z,96833.53
2022-11-03T21:29:09.848Z,96829.44
2022-11-03T21:31:37.358Z,96815.88
2022-11-03T21:34:04.860Z,96825.66
2022-11-03T21:36:32.291Z,96822.50
2022-11-03T21:38:59.746Z,96824.59
2022-11-03T21:41:45.957Z,96825.16
2022-11-03T21:44:16.477Z,96810.75
2022-11-03T21:46:44.629Z,96810.47
2022-11-03T21:49:34.964Z,96813.94
2022-11-03T21:52:02.513Z,96804.06
2022-11-03T21:54:29.954Z,96795.25
2022-11-03T21:56:57.418Z,96804.56
2022-11-03T21:59:25.429Z,96799.78
2022-11-03T22:01:55.282Z,96788.88
2022-11-03T22:04:23.208Z,96792.34
2022-11-03T22:06:54.204Z,96786.78
2022-11-03T22:09:22.324Z,96788.72
2022-11-03T22:11:50.237Z,96800.25
2022-11-03T22:14:17.816Z,96800.78
2022-11-03T22:16:46.215Z,96797.31
2022-11-03T22:19:38.488Z,96801.91
2022-11-03T22:22:30.398Z,96795.28
2022-11-03T22:25:16.697Z,96790.69
2022-11-03T22:27:44.519Z,96785.41
2022-11-03T22:30:30.905Z,96781.44
2022-11-03T22:32:58.617Z,96784.63
2022-11-03T22:35:44.713Z,96785.69
2022-11-03T22:38:17.183Z,96783.03
2022-11-03T22:41:06.397Z,96788.06
2022-11-03T22:43:52.780Z,96781.38
2022-11-03T22:46:20.968Z,96788.03
2022-11-03T22:48:48.450Z,96770.44
2022-11-03T22:51:16.903Z,96767.53
2022-11-03T22:54:03.109Z,96768.81
2022-11-03T22:56:30.818Z,96756.03
2022-11-03T22:58:58.235Z,96751.47
2022-11-03T23:01:30.239Z,96750.66
2022-11-03T23:03:58.090Z,96748.81
2022-11-03T23:06:27.587Z,96749.34
2022-11-03T23:08:55.949Z,96765.63
2022-11-03T23:11:31.127Z,96747.25
2022-11-03T23:14:04.515Z,96740.00
2022-11-03T23:16:37.858Z,96732.84
2022-11-03T23:19:25.284Z,96741.53
2022-11-03T23:21:53.576Z,96746.88
2022-11-03T23:24:43.936Z,96738.28
2022-11-03T23:27:13.937Z,96736.13
2022-11-03T23:29:41.426Z,96729.50
2022-11-03T23:32:08.946Z,96725.50
2022-11-03T23:34:36.409Z,96711.44
2022-11-03T23:37:04.167Z,96711.88
2022-11-03T23:39:31.619Z,96708.13
2022-11-03T23:41:59.077Z,96703.38
2022-11-03T23:44:46.536Z,96704.38
2022-11-03T23:47:32.594Z,96699.00
2022-11-03T23:50:00.097Z,96684.91
2022-11-03T23:52:27.529Z,96679.13
2022-11-03T23:54:54.996Z,96676.47
2022-11-03T23:57:41.179Z,96683.38
